createdAt,value
2022-12-27T00:02:54.353Z,66.07
2022-12-27T00:05:56.456Z,59.50
2022-12-27T00:08:58.491Z,55.92
2022-12-27T00:12:00.669Z,63.13
2022-12-27T00:15:03.032Z,68.30
2022-12-27T00:18:05.072Z,68.90
2022-12-27T00:21:08.012Z,68.18
2022-12-27T00:24:10.063Z,66.72
2022-12-27T00:27:12.101Z,67.03
2022-12-27T00:30:14.188Z,63.30
2022-12-27T00:33:16.219Z,55.75
2022-12-27T00:36:19.597Z,53.90
2022-12-27T00:39:21.626Z,56.42
2022-12-27T00:42:23.663Z,59.47
2022-12-27T00:45:25.645Z,65.82
2022-12-27T00:48:27.685Z,58.57
2022-12-27T00:51:29.795Z,60.42
2022-12-27T00:54:31.851Z,54.88
2022-12-27T00:57:33.811Z,54.93
2022-12-27T01:00:35.837Z,53.28
2022-12-27T01:03:37.964Z,55.67
2022-12-27T01:06:40.419Z,47.28
2022-12-27T01:09:42.483Z,48.80
2022-12-27T01:12:44.493Z,54.90
2022-12-27T01:15:46.488Z,45.30
2022-12-27T01:18:48.848Z,44.33
2022-12-27T01:21:50.797Z,40.00
2022-12-27T01:24:52.887Z,38.05
2022-12-27T01:27:54.932Z,37.73
2022-12-27T01:30:57.190Z,40.38
2022-12-27T01:34:00.361Z,43.90
2022-12-27T01:37:02.424Z,43.60
2022-12-27T01:40:04.777Z,44.28
2022-12-27T01:43:06.776Z,47.95
2022-12-27T01:46:08.868Z,53.60
2022-12-27T01:49:11.781Z,46.93
2022-12-27T01:52:14.322Z,50.45
2022-12-27T01:55:27.419Z,47.70
2022-12-27T01:58:29.513Z,57.33
2022-12-27T02:01:37.590Z,52.42
2022-12-27T02:04:40.107Z,53.17
2022-12-27T02:07:51.261Z,57.47
2022-12-27T02:10:53.726Z,59.53
2022-12-27T02:13:55.782Z,55.35
2022-12-27T02:16:58.915Z,58.22
2022-12-27T02:20:04.067Z,54.20
2022-12-27T02:23:53.808Z,57.50
2022-12-27T02:26:55.979Z,52.85
2022-12-27T02:30:00.604Z,57.63
2022-12-27T02:33:04.794Z,58.05
2022-12-27T02:36:09.196Z,56.30
2022-12-27T02:39:12.690Z,55.30
2022-12-27T02:42:45.229Z,50.78
2022-12-27T02:46:09.884Z,63.00
2022-12-27T02:49:45.817Z,60.20
2022-12-27T02:53:07.269Z,56.03
2022-12-27T02:56:57.351Z,55.30
2022-12-27T03:00:23.904Z,59.35
2022-12-27T03:03:46.137Z,55.17
2022-12-27T03:06:57.294Z,46.22
2022-12-27T03:10:36.536Z,44.15
2022-12-27T03:13:56.923Z,45.25
2022-12-27T03:17:02.609Z,44.17
2022-12-27T03:20:24.954Z,42.72
2022-12-27T03:23:46.113Z,42.92
2022-12-27T03:26:49.191Z,40.20
2022-12-27T03:30:11.527Z,40.13
2022-12-27T03:33:14.390Z,37.55
2022-12-27T03:36:36.979Z,43.43
2022-12-27T03:39:43.386Z,34.30
2022-12-27T03:43:07.605Z,34.58
2022-12-27T03:46:35.396Z,30.60
2022-12-27T03:49:44.106Z,37.08
2022-12-27T03:52:51.690Z,33.65
2022-12-27T03:55:53.890Z,35.80
2022-12-27T03:58:57.367Z,34.77
2022-12-27T04:02:00.016Z,33.67
2022-12-27T04:05:02.265Z,36.70
2022-12-27T04:08:23.028Z,35.97
2022-12-27T04:11:43.500Z,39.28
2022-12-27T04:15:03.794Z,42.15
2022-12-27T04:18:24.315Z,36.88
2022-12-27T04:21:45.069Z,40.03
2022-12-27T04:25:05.545Z,41.55
2022-12-27T04:28:25.937Z,41.70
2022-12-27T04:31:46.254Z,41.27
2022-12-27T04:34:48.248Z,41.28
2022-12-27T04:37:50.359Z,41.70
2022-12-27T04:41:11.223Z,48.27
2022-12-27T04:44:31.628Z,40.72
2022-12-27T04:47:52.021Z,41.03
2022-12-27T04:51:12.475Z,42.10
2022-12-27T04:54:37.085Z,38.05
2022-12-27T04:57:39.199Z,36.58
2022-12-27T05:00:59.684Z,41.50
2022-12-27T05:04:01.746Z,37.33
2022-12-27T05:07:24.974Z,40.13
2022-12-27T05:10:45.812Z,41.55
2022-12-27T05:13:59.905Z,38.40
2022-12-27T05:17:01.930Z,38.70
2022-12-27T05:20:04.515Z,41.65
2022-12-27T05:23:25.143Z,36.38
2022-12-27T05:26:28.571Z,39.50
2022-12-27T05:29:36.027Z,39.42
2022-12-27T05:32:38.089Z,39.90
2022-12-27T05:35:40.564Z,30.20
2022-12-27T05:38:42.569Z,39.10
2022-12-27T05:41:44.587Z,34.20
2022-12-27T05:44:46.560Z,37.27
2022-12-27T05:47:48.550Z,33.05
2022-12-27T05:50:51.821Z,40.28
2022-12-27T05:53:53.955Z,30.65
2022-12-27T05:56:56.160Z,36.60
2022-12-27T05:59:58.202Z,32.47
2022-12-27T06:03:00.338Z,29.00
2022-12-27T06:06:04.307Z,29.87
2022-12-27T06:09:06.321Z,28.08
2022-12-27T06:12:08.371Z,36.20
2022-12-27T06:15:11.901Z,28.43
2022-12-27T06:18:13.920Z,31.48
2022-12-27T06:21:18.197Z,30.20
2022-12-27T06:24:20.192Z,28.58
2022-12-27T06:27:22.242Z,27.42
2022-12-27T06:30:24.205Z,23.95
2022-12-27T06:33:26.219Z,23.75
2022-12-27T06:36:30.357Z,22.93
2022-12-27T06:39:32.391Z,21.95
2022-12-27T06:42:34.538Z,21.60
2022-12-27T06:45:36.537Z,21.97
2022-12-27T06:48:38.910Z,20.27
2022-12-27T06:51:40.875Z,20.33
2022-12-27T06:54:43.194Z,18.42
2022-12-27T06:57:45.181Z,16.05
2022-12-27T07:00:47.278Z,15.25
2022-12-27T07:03:50.441Z,13.32
2022-12-27T07:06:52.435Z,14.07
2022-12-27T07:09:54.432Z,13.85
2022-12-27T07:12:56.781Z,15.32
2022-12-27T07:15:58.795Z,13.27
2022-12-27T07:19:00.825Z,13.07
2022-12-27T07:22:02.830Z,13.30
2022-12-27T07:25:05.153Z,11.73
2022-12-27T07:28:07.591Z,10.70
2022-12-27T07:31:13.025Z,10.30
2022-12-27T07:34:15.144Z,12.93
2022-12-27T07:37:18.273Z,11.10
2022-12-27T07:40:20.296Z,8.07
2022-12-27T07:43:22.318Z,9.60
2022-12-27T07:46:25.235Z,9.13
2022-12-27T07:49:27.230Z,8.70
2022-12-27T07:52:29.248Z,6.75
2022-12-27T07:55:31.454Z,8.65
2022-12-27T07:58:40.345Z,8.63
2022-12-27T08:02:00.844Z,8.93
2022-12-27T08:05:02.975Z,10.30
2022-12-27T08:08:05.267Z,7.27
2022-12-27T08:11:07.482Z,5.80
2022-12-27T08:14:09.511Z,6.68
2022-12-27T08:17:22.475Z,7.07
2022-12-27T08:20:24.519Z,4.93
2022-12-27T08:23:26.561Z,5.55
2022-12-27T08:26:28.586Z,5.88
2022-12-27T08:29:32.185Z,6.80
2022-12-27T08:32:34.443Z,6.47
2022-12-27T08:35:53.308Z,5.45
2022-12-27T08:38:55.926Z,5.00
2022-12-27T08:41:57.983Z,5.72
2022-12-27T08:45:00.068Z,6.63
2022-12-27T08:48:02.275Z,12.57
2022-12-27T08:51:11.913Z,4.75
2022-12-27T08:54:15.139Z,4.57
2022-12-27T08:57:17.085Z,4.60
2022-12-27T09:00:19.159Z,3.27
2022-12-27T09:03:21.834Z,4.23
2022-12-27T09:06:25.669Z,3.00
2022-12-27T09:09:28.566Z,3.55
2022-12-27T09:12:33.668Z,2.80
2022-12-27T09:15:37.124Z,2.43
2022-12-27T09:18:39.686Z,5.73
2022-12-27T09:21:42.073Z,4.03
2022-12-27T09:24:44.074Z,1.88
2022-12-27T09:27:46.088Z,2.60
2022-12-27T09:30:48.125Z,1.63
2022-12-27T09:33:50.327Z,2.72
2022-12-27T09:36:52.386Z,2.35
2022-12-27T09:39:54.422Z,2.00
2022-12-27T09:43:18.134Z,2.47
2022-12-27T09:46:27.219Z,3.03
2022-12-27T09:49:34.659Z,2.05
2022-12-27T09:52:40.196Z,2.42
2022-12-27T09:55:44.305Z,5.35
2022-12-27T09:58:48.543Z,2.88
2022-12-27T10:01:50.786Z,4.80
2022-12-27T10:05:19.236Z,5.85
2022-12-27T10:08:42.196Z,1.60
2022-12-27T10:11:44.163Z,2.05
2022-12-27T10:14:57.105Z,1.40
2022-12-27T10:18:20.361Z,1.30
2022-12-27T10:21:26.371Z,1.45
2022-12-27T10:24:44.306Z,2.03
2022-12-27T10:27:46.881Z,2.28
2022-12-27T10:30:48.931Z,2.97
2022-12-27T10:33:51.946Z,2.43
2022-12-27T10:36:54.012Z,3.80
2022-12-27T10:40:00.418Z,3.05
2022-12-27T10:43:11.299Z,6.72
2022-12-27T10:46:17.455Z,5.23
2022-12-27T10:49:24.184Z,2.40
2022-12-27T10:52:27.209Z,2.35
2022-12-27T10:55:39.206Z,5.38
2022-12-27T10:58:54.706Z,5.03
2022-12-27T11:02:00.792Z,3.93
2022-12-27T11:05:03.065Z,2.80
2022-12-27T11:08:34.657Z,2.63
2022-12-27T11:11:36.619Z,2.95
2022-12-27T11:14:38.686Z,1.63
2022-12-27T11:17:40.650Z,7.10
2022-12-27T11:20:50.281Z,2.60
2022-12-27T11:23:53.929Z,2.97
2022-12-27T11:26:58.389Z,2.70
2022-12-27T11:30:00.570Z,3.47
2022-12-27T11:33:04.294Z,2.53
2022-12-27T11:36:07.438Z,3.08
2022-12-27T11:39:29.381Z,4.05
2022-12-27T11:42:40.197Z,2.00
2022-12-27T11:45:44.515Z,2.80
2022-12-27T11:48:50.524Z,1.70
2022-12-27T11:52:11.151Z,3.08
2022-12-27T11:55:33.675Z,2.17
2022-12-27T11:58:35.665Z,2.83
2022-12-27T12:01:56.119Z,4.47
2022-12-27T12:05:01.039Z,2.65
2022-12-27T12:08:21.753Z,5.18
2022-12-27T12:11:35.256Z,2.97
2022-12-27T12:14:55.687Z,3.20
2022-12-27T12:18:15.802Z,2.33
2022-12-27T12:21:25.825Z,3.33
2022-12-27T12:24:46.292Z,2.20
2022-12-27T12:28:47.249Z,2.88
2022-12-27T12:31:55.338Z,2.43
2022-12-27T12:34:57.368Z,3.30
2022-12-27T12:38:04.193Z,2.70
2022-12-27T12:41:25.077Z,3.13
2022-12-27T12:44:41.383Z,3.28
2022-12-27T12:48:02.540Z,9.37
2022-12-27T12:51:11.130Z,11.45
2022-12-27T12:54:33.420Z,7.78
2022-12-27T12:57:35.412Z,9.05
2022-12-27T13:00:57.762Z,4.53
2022-12-27T13:04:09.546Z,8.87
2022-12-27T13:07:30.407Z,5.68
2022-12-27T13:10:52.716Z,4.68
2022-12-27T13:14:06.755Z,5.95
2022-12-27T13:17:23.847Z,6.43
2022-12-27T13:20:48.714Z,3.85
2022-12-27T13:24:16.945Z,2.53
2022-12-27T13:27:30.966Z,3.13
2022-12-27T13:30:42.796Z,4.83
2022-12-27T13:34:05.710Z,6.20
2022-12-27T13:37:10.482Z,3.13
2022-12-27T13:40:18.409Z,5.43
2022-12-27T13:43:32.548Z,3.80
2022-12-27T13:46:42.430Z,6.00
2022-12-27T13:49:44.950Z,8.13
2022-12-27T13:52:59.752Z,11.10
2022-12-27T13:56:27.276Z,16.53
2022-12-27T13:59:46.450Z,5.93
2022-12-27T14:03:17.666Z,4.72
2022-12-27T14:06:29.954Z,4.88
2022-12-27T14:09:43.943Z,3.63
2022-12-27T14:12:45.969Z,2.70
2022-12-27T14:16:06.177Z,4.65
2022-12-27T14:19:23.504Z,8.70
2022-12-27T14:22:25.562Z,9.75
2022-12-27T14:25:45.963Z,11.18
2022-12-27T14:28:47.999Z,10.65
2022-12-27T14:31:50.054Z,13.18
2022-12-27T14:34:59.314Z,8.23
2022-12-27T14:38:01.997Z,10.77
2022-12-27T14:41:22.727Z,13.03
2022-12-27T14:44:43.188Z,9.68
2022-12-27T14:47:47.963Z,8.30
2022-12-27T14:50:52.793Z,9.33
2022-12-27T14:54:13.393Z,11.32
2022-12-27T14:57:38.265Z,11.07
2022-12-27T15:00:52.227Z,14.10
2022-12-27T15:04:14.519Z,18.92
2022-12-27T15:07:19.647Z,18.80
2022-12-27T15:10:40.474Z,15.23
2022-12-27T15:13:57.617Z,16.23
2022-12-27T15:17:10.961Z,15.27
2022-12-27T15:20:22.026Z,12.82
2022-12-27T15:23:23.994Z,18.00
2022-12-27T15:26:36.847Z,15.23
2022-12-27T15:29:44.945Z,16.75
2022-12-27T15:32:59.042Z,18.95
2022-12-27T15:36:06.959Z,13.02
2022-12-27T15:39:27.665Z,13.23
2022-12-27T15:42:41.985Z,12.68
2022-12-27T15:46:06.746Z,10.07
2022-12-27T15:49:27.239Z,9.85
2022-12-27T15:52:38.684Z,8.48
2022-12-27T15:56:04.277Z,11.20
2022-12-27T15:59:24.843Z,17.75
2022-12-27T16:02:27.109Z,16.80
2022-12-27T16:05:41.318Z,11.77
2022-12-27T16:08:43.529Z,11.10
2022-12-27T16:12:04.113Z,8.38
2022-12-27T16:15:24.548Z,7.97
2022-12-27T16:18:29.278Z,10.40
2022-12-27T16:21:42.087Z,9.75
2022-12-27T16:24:44.156Z,9.07
2022-12-27T16:27:52.848Z,13.13
2022-12-27T16:30:56.247Z,15.07
2022-12-27T16:33:59.893Z,12.88
2022-12-27T16:37:02.183Z,24.08
2022-12-27T16:40:22.647Z,16.52
2022-12-27T16:43:31.207Z,18.52
2022-12-27T16:46:36.237Z,16.80
2022-12-27T16:49:55.586Z,9.83
2022-12-27T16:53:05.283Z,8.40
2022-12-27T16:56:13.921Z,10.63
2022-12-27T16:59:34.720Z,6.23
2022-12-27T17:02:40.115Z,6.53
2022-12-27T17:05:58.687Z,9.23
2022-12-27T17:09:24.680Z,13.25
2022-12-27T17:12:27.562Z,13.60
2022-12-27T17:15:29.909Z,13.07
2022-12-27T17:18:34.339Z,12.55
2022-12-27T17:21:37.933Z,20.43
2022-12-27T17:24:40.179Z,11.35
2022-12-27T17:28:08.095Z,9.45
2022-12-27T17:31:24.244Z,12.67
2022-12-27T17:34:32.118Z,11.00
2022-12-27T17:37:52.275Z,9.13
2022-12-27T17:40:54.290Z,12.90
2022-12-27T17:44:37.860Z,13.05
2022-12-27T17:47:42.681Z,13.88
2022-12-27T17:50:44.859Z,10.00
2022-12-27T17:54:06.250Z,10.83
2022-12-27T17:57:29.833Z,8.55
2022-12-27T18:00:33.443Z,15.95
2022-12-27T18:03:46.072Z,19.53
2022-12-27T18:06:48.218Z,15.90
2022-12-27T18:09:52.284Z,16.50
2022-12-27T18:13:04.863Z,30.27
2022-12-27T18:16:18.468Z,18.67
2022-12-27T18:19:20.934Z,13.00
2022-12-27T18:22:22.990Z,12.13
2022-12-27T18:25:26.159Z,14.00
2022-12-27T18:28:33.414Z,14.43
2022-12-27T18:31:42.283Z,18.67
2022-12-27T18:35:04.686Z,17.83
2022-12-27T18:38:08.126Z,22.88
2022-12-27T18:41:13.030Z,19.15
2022-12-27T18:44:23.064Z,12.30
2022-12-27T18:47:28.858Z,10.80
2022-12-27T18:50:32.082Z,12.10
2022-12-27T18:53:38.519Z,13.15
2022-12-27T18:56:41.703Z,18.07
2022-12-27T18:59:43.736Z,15.25
2022-12-27T19:02:45.938Z,10.02
2022-12-27T19:05:59.802Z,12.30
2022-12-27T19:09:01.889Z,18.52
2022-12-27T19:12:06.353Z,16.02
2022-12-27T19:15:16.636Z,15.60
2022-12-27T19:18:21.292Z,12.63
2022-12-27T19:21:33.839Z,13.07
2022-12-27T19:24:35.924Z,13.30
2022-12-27T19:27:37.945Z,12.97
2022-12-27T19:31:04.171Z,14.80
2022-12-27T19:34:08.556Z,13.32
2022-12-27T19:37:10.577Z,16.17
2022-12-27T19:40:14.442Z,20.35
2022-12-27T19:43:16.842Z,19.70
2022-12-27T19:46:19.327Z,18.58
2022-12-27T19:52:47.523Z,17.08
2022-12-27T19:55:49.502Z,16.98
2022-12-27T19:58:51.575Z,16.30
2022-12-27T20:01:53.895Z,16.23
2022-12-27T20:04:56.080Z,20.15
2022-12-27T20:07:58.112Z,18.03
2022-12-27T20:11:00.835Z,8.30
2022-12-27T20:14:02.820Z,15.73
2022-12-27T20:17:04.960Z,27.20
2022-12-27T20:20:07.377Z,20.05
2022-12-27T20:23:09.379Z,22.92
2022-12-27T20:26:12.246Z,26.02
2022-12-27T20:29:15.379Z,31.53
2022-12-27T20:32:17.698Z,28.23
2022-12-27T20:35:19.717Z,26.88
2022-12-27T20:38:21.749Z,25.43
2022-12-27T20:41:24.303Z,23.40
2022-12-27T20:44:27.871Z,15.50
2022-12-27T20:47:29.907Z,14.93
2022-12-27T20:50:31.951Z,12.60
2022-12-27T20:53:33.973Z,14.98
2022-12-27T20:56:36.145Z,15.68
2022-12-27T20:59:38.115Z,17.33
2022-12-27T21:02:40.607Z,15.70
2022-12-27T21:05:42.645Z,13.35
2022-12-27T21:08:48.969Z,15.90
2022-12-27T21:11:52.552Z,20.73
2022-12-27T21:14:54.508Z,14.73
2022-12-27T21:17:56.522Z,14.27
2022-12-27T21:21:05.685Z,18.42
2022-12-27T21:24:08.682Z,21.15
2022-12-27T21:27:10.739Z,20.48
2022-12-27T21:30:13.678Z,18.57
2022-12-27T21:33:15.713Z,18.63
2022-12-27T21:36:22.028Z,12.18
2022-12-27T21:39:24.039Z,13.40
2022-12-27T21:42:26.159Z,14.18
2022-12-27T21:45:28.227Z,11.75
2022-12-27T21:48:30.248Z,12.77
2022-12-27T21:51:32.768Z,15.10
2022-12-27T21:54:35.399Z,13.82
2022-12-27T21:57:38.254Z,8.75
2022-12-27T22:00:40.304Z,15.30
2022-12-27T22:03:43.408Z,10.15
2022-12-27T22:06:47.588Z,11.27
2022-12-27T22:09:49.979Z,9.97
2022-12-27T22:12:52.066Z,9.43
2022-12-27T22:15:57.620Z,11.52
2022-12-27T22:18:59.985Z,13.10
2022-12-27T22:22:02.008Z,18.88
2022-12-27T22:25:04.113Z,15.70
2022-12-27T22:28:06.084Z,14.18
2022-12-27T22:31:09.305Z,10.60
2022-12-27T22:34:11.360Z,15.07
2022-12-27T22:37:13.420Z,12.68
2022-12-27T22:40:31.046Z,14.47
2022-12-27T22:43:39.146Z,13.82
2022-12-27T22:47:15.812Z,11.30
2022-12-27T22:50:04.190Z,16.98
2022-12-27T22:53:06.470Z,11.23
2022-12-27T22:56:20.507Z,17.10
2022-12-27T22:59:22.487Z,11.18
2022-12-27T23:02:24.649Z,11.93
2022-12-27T23:05:26.790Z,9.82
2022-12-27T23:08:28.786Z,10.30
2022-12-27T23:11:32.323Z,8.97
2022-12-27T23:14:34.382Z,10.43
2022-12-27T23:17:36.402Z,9.73
2022-12-27T23:20:38.406Z,8.98
2022-12-27T23:24:00.399Z,10.30
2022-12-27T23:27:03.398Z,8.90
2022-12-27T23:30:05.654Z,12.85
2022-12-27T23:33:07.656Z,10.33
2022-12-27T23:36:10.131Z,8.07
2022-12-27T23:39:12.103Z,9.38
2022-12-27T23:42:14.047Z,11.10
2022-12-27T23:45:16.088Z,13.35
2022-12-27T23:48:18.117Z,8.38
2022-12-27T23:51:20.464Z,8.25
2022-12-27T23:54:22.434Z,9.18
2022-12-27T23:57:24.800Z,10.25
